createdAt,value
2022-08-31T00:01:37.028Z,11.70
2022-08-31T00:04:03.951Z,11.70
2022-08-31T00:06:31.735Z,11.70
2022-08-31T00:08:58.732Z,11.60
2022-08-31T00:11:30.438Z,11.70
2022-08-31T00:13:59.576Z,11.60
2022-08-31T00:16:27.118Z,11.60
2022-08-31T00:18:54.032Z,11.60
2022-08-31T00:21:21.898Z,11.60
2022-08-31T00:23:48.806Z,11.60
2022-08-31T00:26:16.625Z,11.60
2022-08-31T00:28:43.897Z,11.60
2022-08-31T00:31:13.284Z,11.50
2022-08-31T00:33:40.260Z,11.40
2022-08-31T00:36:08.412Z,11.40
2022-08-31T00:38:35.255Z,11.40
2022-08-31T00:41:02.062Z,11.40
2022-08-31T00:43:36.955Z,11.40
2022-08-31T00:46:04.301Z,11.40
2022-08-31T00:48:31.893Z,11.40
2022-08-31T00:50:58.821Z,11.40
2022-08-31T00:53:25.915Z,11.40
2022-08-31T00:55:52.825Z,11.30
2022-08-31T00:58:20.044Z,11.30
2022-08-31T01:00:49.081Z,11.30
2022-08-31T01:03:16.913Z,11.30
2022-08-31T01:05:44.129Z,11.20
2022-08-31T01:08:11.341Z,11.20
2022-08-31T01:10:40.071Z,11.10
2022-08-31T01:13:07.086Z,11.10
2022-08-31T01:15:34.255Z,11.10
2022-08-31T01:18:01.932Z,11.10
2022-08-31T01:20:36.686Z,11.10
2022-08-31T01:23:09.748Z,11.10
2022-08-31T01:25:38.755Z,11.00
2022-08-31T01:28:06.734Z,11.00
2022-08-31T01:30:33.781Z,11.00
2022-08-31T01:33:00.661Z,10.90
2022-08-31T01:35:27.837Z,10.90
2022-08-31T01:37:54.855Z,11.00
2022-08-31T01:40:25.176Z,11.00
2022-08-31T01:42:52.029Z,11.00
2022-08-31T01:45:19.010Z,10.90
2022-08-31T01:47:45.855Z,10.90
2022-08-31T01:50:12.738Z,10.90
2022-08-31T01:52:40.351Z,10.90
2022-08-31T01:55:07.797Z,10.90
2022-08-31T01:57:34.861Z,10.80
2022-08-31T02:00:02.534Z,10.80
2022-08-31T02:02:29.379Z,10.80
2022-08-31T02:04:56.193Z,10.80
2022-08-31T02:07:23.061Z,10.80
2022-08-31T02:09:49.980Z,10.80
2022-08-31T02:12:17.776Z,10.80
2022-08-31T02:14:44.668Z,10.70
2022-08-31T02:17:11.445Z,10.70
2022-08-31T02:19:38.321Z,10.70
2022-08-31T02:22:05.121Z,10.70
2022-08-31T02:24:31.994Z,10.70
2022-08-31T02:26:58.986Z,10.60
2022-08-31T02:29:25.911Z,10.60
2022-08-31T02:31:52.807Z,10.60
2022-08-31T02:34:19.929Z,10.60
2022-08-31T02:36:46.907Z,10.60
2022-08-31T02:39:14.919Z,10.50
2022-08-31T02:41:42.451Z,10.50
2022-08-31T02:44:09.468Z,10.50
2022-08-31T02:46:39.355Z,10.50
2022-08-31T02:49:06.210Z,10.50
2022-08-31T02:51:33.128Z,10.50
2022-08-31T02:53:59.966Z,10.50
2022-08-31T02:56:26.817Z,10.50
2022-08-31T02:58:55.194Z,10.50
2022-08-31T03:01:22.625Z,10.50
2022-08-31T03:03:49.989Z,10.50
2022-08-31T03:06:17.352Z,10.40
2022-08-31T03:08:44.209Z,10.40
2022-08-31T03:11:11.133Z,10.40
2022-08-31T03:13:38.371Z,10.40
2022-08-31T03:16:06.051Z,10.40
2022-08-31T03:18:33.992Z,10.40
2022-08-31T03:21:00.855Z,10.30
2022-08-31T03:23:27.695Z,10.30
2022-08-31T03:25:54.612Z,10.20
2022-08-31T03:28:21.417Z,10.20
2022-08-31T03:30:48.286Z,10.10
2022-08-31T03:33:15.157Z,10.10
2022-08-31T03:35:44.391Z,10.10
2022-08-31T03:38:12.857Z,10.10
2022-08-31T03:40:43.608Z,10.10
2022-08-31T03:43:11.710Z,10.10
2022-08-31T03:45:40.166Z,10.00
2022-08-31T03:48:11.984Z,10.10
2022-08-31T03:50:40.077Z,10.00
2022-08-31T03:53:07.573Z,10.10
2022-08-31T03:55:35.177Z,10.00
2022-08-31T03:58:02.267Z,10.00
2022-08-31T04:00:31.332Z,10.00
2022-08-31T04:02:59.817Z,10.00
2022-08-31T04:05:28.034Z,9.90
2022-08-31T04:07:55.087Z,9.90
2022-08-31T04:10:23.146Z,10.00
2022-08-31T04:12:50.785Z,10.00
2022-08-31T04:15:18.011Z,10.00
2022-08-31T04:17:45.620Z,10.00
2022-08-31T04:20:12.492Z,10.00
2022-08-31T04:22:39.330Z,10.00
2022-08-31T04:25:06.398Z,10.10
2022-08-31T04:27:33.199Z,10.10
2022-08-31T04:30:00.181Z,10.10
2022-08-31T04:32:27.031Z,10.10
2022-08-31T04:34:56.377Z,10.20
2022-08-31T04:37:23.742Z,10.20
2022-08-31T04:39:52.283Z,10.20
2022-08-31T04:42:19.511Z,10.20
2022-08-31T04:44:47.587Z,10.30
2022-08-31T04:47:15.011Z,10.30
2022-08-31T04:49:41.896Z,10.30
2022-08-31T04:52:08.914Z,10.40
2022-08-31T04:54:35.784Z,10.40
2022-08-31T04:57:02.656Z,10.50
2022-08-31T04:59:29.602Z,10.40
2022-08-31T05:01:56.695Z,10.50
2022-08-31T05:04:29.132Z,10.50
2022-08-31T05:06:56.129Z,10.60
2022-08-31T05:09:23.938Z,10.60
2022-08-31T05:11:51.758Z,10.60
2022-08-31T05:14:19.053Z,10.70
2022-08-31T05:16:46.053Z,10.70
2022-08-31T05:19:13.069Z,10.70
2022-08-31T05:21:40.918Z,10.80
2022-08-31T05:24:19.054Z,10.80
2022-08-31T05:26:50.318Z,10.90
2022-08-31T05:29:22.293Z,10.90
2022-08-31T05:31:52.501Z,10.90
2022-08-31T05:34:20.867Z,11.00
2022-08-31T05:36:50.076Z,11.00
2022-08-31T05:39:16.866Z,11.00
2022-08-31T05:41:45.215Z,11.10
2022-08-31T05:44:12.626Z,11.10
2022-08-31T05:46:40.515Z,11.30
2022-08-31T05:49:08.111Z,11.40
2022-08-31T05:51:38.493Z,11.40
2022-08-31T05:54:05.771Z,11.40
2022-08-31T05:56:32.686Z,11.40
2022-08-31T05:59:00.018Z,11.50
2022-08-31T06:01:30.514Z,11.40
2022-08-31T06:04:00.331Z,11.50
2022-08-31T06:06:27.585Z,11.60
2022-08-31T06:08:54.638Z,11.60
2022-08-31T06:11:22.594Z,11.60
2022-08-31T06:13:50.623Z,11.70
2022-08-31T06:16:17.854Z,11.80
2022-08-31T06:18:49.617Z,11.80
2022-08-31T06:21:18.079Z,11.80
2022-08-31T06:23:44.962Z,11.80
2022-08-31T06:26:13.273Z,11.90
2022-08-31T06:28:40.488Z,12.00
2022-08-31T06:31:12.248Z,12.00
2022-08-31T06:33:40.002Z,12.10
2022-08-31T06:36:14.117Z,12.10
2022-08-31T06:38:43.496Z,12.20
2022-08-31T06:41:12.531Z,12.20
2022-08-31T06:43:39.629Z,12.40
2022-08-31T06:46:07.145Z,12.40
2022-08-31T06:48:35.117Z,12.50
2022-08-31T06:51:02.471Z,12.60
2022-08-31T06:53:29.806Z,12.60
2022-08-31T06:55:56.750Z,12.70
2022-08-31T06:58:23.894Z,12.70
2022-08-31T07:00:50.859Z,12.80
2022-08-31T07:03:33.230Z,12.80
2022-08-31T07:06:03.558Z,12.90
2022-08-31T07:08:30.435Z,13.00
2022-08-31T07:10:57.554Z,13.10
2022-08-31T07:13:24.504Z,13.20
2022-08-31T07:15:51.520Z,13.20
2022-08-31T07:18:18.379Z,13.30
2022-08-31T07:20:45.209Z,13.30
2022-08-31T07:23:12.061Z,13.40
2022-08-31T07:25:39.507Z,13.50
2022-08-31T07:28:06.400Z,13.50
2022-08-31T07:30:39.182Z,13.60
2022-08-31T07:33:06.837Z,13.70
2022-08-31T07:35:33.702Z,13.70
2022-08-31T07:38:19.388Z,13.70
2022-08-31T07:41:05.058Z,13.80
2022-08-31T07:43:36.087Z,13.90
2022-08-31T07:46:03.488Z,14.00
2022-08-31T07:48:31.923Z,14.10
2022-08-31T07:51:00.391Z,14.20
2022-08-31T07:53:27.188Z,14.20
2022-08-31T07:55:55.671Z,14.40
2022-08-31T07:58:22.774Z,14.40
2022-08-31T08:00:49.914Z,14.50
2022-08-31T08:03:16.875Z,14.50
2022-08-31T08:05:43.776Z,14.60
2022-08-31T08:08:13.528Z,14.70
2022-08-31T08:10:42.218Z,14.90
2022-08-31T08:13:09.368Z,15.00
2022-08-31T08:15:40.341Z,15.00
2022-08-31T08:18:07.384Z,14.90
2022-08-31T08:20:37.742Z,14.90
2022-08-31T08:23:11.708Z,14.90
2022-08-31T08:25:41.426Z,14.90
2022-08-31T08:28:35.875Z,14.70
2022-08-31T08:31:01.585Z,14.80
2022-08-31T08:33:32.565Z,14.80
2022-08-31T08:36:03.257Z,14.80
2022-08-31T08:38:33.446Z,14.90
2022-08-31T08:41:01.503Z,15.00
2022-08-31T08:43:31.173Z,15.00
2022-08-31T08:46:06.720Z,15.20
2022-08-31T08:48:43.739Z,15.30
2022-08-31T08:51:14.703Z,15.40
2022-08-31T08:53:42.805Z,15.30
2022-08-31T08:56:32.196Z,15.30
2022-08-31T08:59:00.370Z,15.20
2022-08-31T09:01:28.038Z,15.30
2022-08-31T09:03:57.551Z,15.40
2022-08-31T09:06:27.482Z,15.60
2022-08-31T09:09:15.729Z,15.70
2022-08-31T09:11:52.733Z,15.70
2022-08-31T09:14:22.370Z,15.70
2022-08-31T09:17:07.929Z,15.70
2022-08-31T09:19:54.671Z,15.70
2022-08-31T09:22:21.484Z,15.70
2022-08-31T09:24:56.369Z,15.60
2022-08-31T09:27:39.032Z,15.60
2022-08-31T09:30:06.653Z,15.60
2022-08-31T09:32:36.921Z,15.60
2022-08-31T09:35:05.641Z,15.50
2022-08-31T09:37:40.386Z,15.50
2022-08-31T09:40:23.409Z,15.50
2022-08-31T09:43:06.143Z,15.70
2022-08-31T09:45:41.792Z,15.80
2022-08-31T09:48:09.449Z,15.90
2022-08-31T09:50:45.702Z,16.10
2022-08-31T09:53:41.830Z,16.10
2022-08-31T09:56:14.530Z,16.10
2022-08-31T09:58:55.445Z,16.20
2022-08-31T10:01:44.334Z,16.30
2022-08-31T10:04:12.289Z,16.20
2022-08-31T10:06:46.634Z,16.00
2022-08-31T10:09:18.144Z,16.00
2022-08-31T10:11:47.607Z,16.00
2022-08-31T10:14:23.941Z,16.10
2022-08-31T10:16:53.310Z,16.30
2022-08-31T10:19:30.494Z,16.40
2022-08-31T10:22:00.117Z,16.50
2022-08-31T10:24:41.590Z,16.40
2022-08-31T10:27:14.733Z,16.40
2022-08-31T10:29:46.164Z,16.50
2022-08-31T10:32:39.760Z,16.50
2022-08-31T10:35:06.602Z,16.60
2022-08-31T10:37:35.794Z,16.70
2022-08-31T10:40:05.729Z,16.70
2022-08-31T10:42:37.433Z,16.70
2022-08-31T10:45:18.667Z,16.70
2022-08-31T10:47:49.173Z,16.70
2022-08-31T10:50:23.190Z,16.80
2022-08-31T10:53:15.721Z,16.90
2022-08-31T10:55:48.754Z,17.10
2022-08-31T10:58:31.334Z,17.20
2022-08-31T11:01:13.087Z,17.30
2022-08-31T11:03:50.843Z,17.20
2022-08-31T11:06:31.041Z,17.20
2022-08-31T11:09:19.415Z,17.10
2022-08-31T11:11:49.283Z,17.10
2022-08-31T11:14:36.790Z,16.90
2022-08-31T11:17:12.021Z,16.80
2022-08-31T11:19:57.852Z,16.70
2022-08-31T11:22:37.701Z,16.70
2022-08-31T11:25:04.606Z,16.70
2022-08-31T11:27:49.235Z,16.70
2022-08-31T11:30:24.445Z,16.70
2022-08-31T11:32:52.959Z,16.70
2022-08-31T11:35:39.224Z,16.80
2022-08-31T11:38:30.325Z,16.90
2022-08-31T11:41:04.114Z,17.10
2022-08-31T11:43:33.741Z,17.20
2022-08-31T11:46:24.129Z,17.20
2022-08-31T11:48:54.062Z,17.30
2022-08-31T11:51:37.294Z,17.10
2022-08-31T11:54:11.693Z,17.20
2022-08-31T11:56:40.045Z,17.10
2022-08-31T11:59:35.471Z,17.00
2022-08-31T12:02:21.115Z,17.00
2022-08-31T12:04:58.778Z,17.10
2022-08-31T12:07:35.617Z,17.10
2022-08-31T12:10:07.226Z,17.00
2022-08-31T12:12:44.017Z,17.00
2022-08-31T12:15:13.941Z,16.80
2022-08-31T12:17:51.278Z,16.90
2022-08-31T12:20:55.566Z,16.90
2022-08-31T12:23:45.493Z,17.00
2022-08-31T12:26:31.259Z,17.20
2022-08-31T12:29:17.182Z,17.30
2022-08-31T12:31:58.040Z,17.40
2022-08-31T12:34:25.632Z,17.40
2022-08-31T12:36:52.525Z,17.30
2022-08-31T12:39:19.308Z,17.30
2022-08-31T12:41:49.491Z,17.10
2022-08-31T12:44:21.090Z,17.10
2022-08-31T12:46:57.972Z,17.10
2022-08-31T12:49:27.580Z,17.10
2022-08-31T12:51:57.303Z,17.20
2022-08-31T12:54:24.065Z,17.30
2022-08-31T12:57:06.951Z,17.50
2022-08-31T12:59:57.254Z,17.40
2022-08-31T13:02:20.632Z,17.50
2022-08-31T13:04:47.905Z,17.50
2022-08-31T13:07:19.126Z,17.40
2022-08-31T13:09:46.085Z,17.30
2022-08-31T13:12:21.957Z,17.30
2022-08-31T13:14:48.785Z,17.20
2022-08-31T13:17:18.022Z,17.20
2022-08-31T13:19:52.624Z,17.20
2022-08-31T13:22:25.485Z,17.20
2022-08-31T13:24:54.132Z,17.20
2022-08-31T13:27:23.529Z,17.20
2022-08-31T13:29:51.372Z,17.20
2022-08-31T13:32:21.314Z,17.20
2022-08-31T13:34:48.873Z,17.10
2022-08-31T13:37:21.729Z,17.00
2022-08-31T13:39:49.008Z,17.00
2022-08-31T13:42:24.247Z,16.90
2022-08-31T13:45:25.153Z,16.80
2022-08-31T13:47:57.096Z,16.80
2022-08-31T13:50:25.760Z,16.80
2022-08-31T13:53:24.846Z,16.80
2022-08-31T13:55:44.926Z,16.80
2022-08-31T13:58:31.212Z,16.80
2022-08-31T14:01:18.901Z,16.80
2022-08-31T14:03:52.157Z,16.80
2022-08-31T14:06:26.482Z,16.80
2022-08-31T14:09:03.686Z,16.90
2022-08-31T14:11:31.494Z,16.90
2022-08-31T14:14:06.180Z,16.80
2022-08-31T14:16:35.148Z,16.70
2022-08-31T14:19:02.396Z,16.70
2022-08-31T14:21:31.057Z,16.70
2022-08-31T14:24:02.580Z,16.80
2022-08-31T14:26:31.624Z,16.80
2022-08-31T14:29:00.487Z,16.70
2022-08-31T14:31:34.899Z,16.80
2022-08-31T14:34:11.444Z,16.90
2022-08-31T14:36:46.090Z,16.90
2022-08-31T14:39:13.060Z,16.80
2022-08-31T14:41:40.033Z,16.60
2022-08-31T14:44:11.552Z,16.60
2022-08-31T14:46:39.719Z,16.60
2022-08-31T14:49:07.323Z,16.50
2022-08-31T14:51:35.794Z,16.40
2022-08-31T14:54:03.148Z,16.30
2022-08-31T14:56:39.690Z,16.40
2022-08-31T14:59:18.921Z,16.40
2022-08-31T15:01:48.273Z,16.40
2022-08-31T15:04:17.290Z,16.30
2022-08-31T15:06:48.987Z,16.40
2022-08-31T15:09:15.896Z,16.30
2022-08-31T15:11:43.754Z,16.30
2022-08-31T15:14:14.088Z,16.20
2022-08-31T15:16:44.569Z,16.20
2022-08-31T15:19:14.369Z,16.20
2022-08-31T15:21:52.841Z,16.20
2022-08-31T15:24:25.792Z,16.20
2022-08-31T15:26:54.237Z,16.30
2022-08-31T15:29:24.779Z,16.20
2022-08-31T15:31:52.918Z,16.30
2022-08-31T15:34:21.850Z,16.40
2022-08-31T15:36:55.130Z,16.40
2022-08-31T15:39:23.032Z,16.50
2022-08-31T15:41:50.379Z,16.50
2022-08-31T15:44:17.986Z,16.50
2022-08-31T15:47:03.526Z,16.60
2022-08-31T15:49:30.455Z,16.70
2022-08-31T15:51:57.324Z,16.70
2022-08-31T15:54:26.289Z,16.70
2022-08-31T15:56:53.790Z,16.60
2022-08-31T15:59:30.060Z,16.60
2022-08-31T16:01:57.646Z,16.60
2022-08-31T16:04:24.610Z,16.70
2022-08-31T16:06:52.812Z,16.60
2022-08-31T16:09:21.366Z,16.60
2022-08-31T16:11:49.413Z,16.50
2022-08-31T16:14:17.163Z,16.50
2022-08-31T16:16:45.455Z,16.50
2022-08-31T16:19:27.746Z,16.40
2022-08-31T16:22:00.558Z,16.40
2022-08-31T16:24:27.641Z,16.50
2022-08-31T16:26:57.662Z,16.40
2022-08-31T16:29:25.494Z,16.50
2022-08-31T16:31:52.859Z,16.40
2022-08-31T16:34:19.919Z,16.30
2022-08-31T16:36:50.992Z,16.30
2022-08-31T16:39:18.729Z,16.20
2022-08-31T16:41:46.197Z,16.00
2022-08-31T16:44:19.853Z,16.00
2022-08-31T16:46:47.196Z,15.90
2022-08-31T16:49:32.913Z,15.90
2022-08-31T16:52:00.851Z,15.90
2022-08-31T16:54:28.799Z,15.90
2022-08-31T16:56:57.669Z,15.80
2022-08-31T16:59:26.108Z,15.80
2022-08-31T17:01:53.532Z,15.70
2022-08-31T17:04:48.268Z,15.60
2022-08-31T17:07:10.776Z,15.50
2022-08-31T17:09:38.656Z,15.40
2022-08-31T17:12:07.771Z,15.40
2022-08-31T17:14:36.334Z,15.30
2022-08-31T17:17:05.757Z,15.20
2022-08-31T17:19:36.773Z,15.20
2022-08-31T17:22:04.964Z,15.20
2022-08-31T17:24:36.950Z,15.10
2022-08-31T17:27:05.309Z,15.00
2022-08-31T17:29:37.791Z,14.90
2022-08-31T17:32:12.012Z,14.80
2022-08-31T17:34:39.257Z,14.80
2022-08-31T17:37:13.280Z,14.80
2022-08-31T17:39:41.374Z,14.70
2022-08-31T17:42:08.610Z,14.70
2022-08-31T17:44:37.972Z,14.70
2022-08-31T17:47:05.682Z,14.60
2022-08-31T17:49:37.732Z,14.50
2022-08-31T17:52:06.658Z,14.50
2022-08-31T17:54:34.820Z,14.50
2022-08-31T17:57:03.375Z,14.50
2022-08-31T17:59:32.117Z,14.50
2022-08-31T18:02:01.013Z,14.30
2022-08-31T18:04:28.350Z,14.30
2022-08-31T18:06:55.998Z,14.20
2022-08-31T18:09:25.555Z,14.20
2022-08-31T18:11:53.074Z,14.10
2022-08-31T18:14:22.288Z,14.00
2022-08-31T18:16:49.758Z,14.00
2022-08-31T18:19:17.897Z,13.80
2022-08-31T18:21:55.608Z,13.80
2022-08-31T18:24:22.887Z,13.60
2022-08-31T18:26:50.626Z,13.60
2022-08-31T18:29:22.661Z,13.60
2022-08-31T18:31:52.927Z,13.50
2022-08-31T18:34:22.117Z,13.50
2022-08-31T18:36:53.342Z,13.40
2022-08-31T18:39:47.614Z,13.30
2022-08-31T18:42:28.430Z,13.30
2022-08-31T18:45:13.710Z,13.30
2022-08-31T18:47:40.612Z,13.20
2022-08-31T18:50:07.941Z,13.20
2022-08-31T18:52:39.523Z,13.10
2022-08-31T18:55:06.733Z,13.10
2022-08-31T18:57:34.090Z,13.00
2022-08-31T19:00:16.267Z,13.00
2022-08-31T19:02:43.734Z,12.90
2022-08-31T19:05:12.307Z,12.80
2022-08-31T19:07:41.249Z,12.80
2022-08-31T19:10:12.913Z,12.80
2022-08-31T19:12:42.960Z,12.80
2022-08-31T19:15:11.787Z,12.70
2022-08-31T19:17:40.209Z,12.70
2022-08-31T19:20:10.229Z,12.60
2022-08-31T19:22:37.563Z,12.60
2022-08-31T19:25:04.911Z,12.50
2022-08-31T19:27:31.935Z,12.40
2022-08-31T19:29:59.108Z,12.40
2022-08-31T19:32:26.498Z,12.40
2022-08-31T19:34:53.707Z,12.30
2022-08-31T19:37:20.689Z,12.40
2022-08-31T19:39:47.711Z,12.40
2022-08-31T19:42:16.472Z,12.30
2022-08-31T19:47:34.904Z,12.30
2022-08-31T19:50:02.104Z,12.10
2022-08-31T19:52:29.971Z,12.10
2022-08-31T19:54:56.951Z,12.20
2022-08-31T19:57:23.802Z,12.10
2022-08-31T19:59:50.759Z,12.10
2022-08-31T20:02:18.186Z,12.10
2022-08-31T20:04:45.638Z,12.10
2022-08-31T20:07:13.615Z,12.10
2022-08-31T20:09:40.811Z,12.10
2022-08-31T20:12:08.143Z,12.00
2022-08-31T20:14:35.975Z,11.90
2022-08-31T20:17:03.550Z,11.90
2022-08-31T20:19:34.846Z,11.80
2022-08-31T20:22:06.966Z,11.80
2022-08-31T20:24:35.297Z,11.70
2022-08-31T20:27:09.499Z,11.80
2022-08-31T20:29:37.600Z,11.70
2022-08-31T20:32:04.700Z,11.60
2022-08-31T20:34:31.540Z,11.60
2022-08-31T20:37:01.182Z,11.60
2022-08-31T20:39:29.430Z,11.50
2022-08-31T20:41:59.136Z,11.50
2022-08-31T20:44:28.174Z,11.50
2022-08-31T20:47:21.332Z,11.40
2022-08-31T20:49:55.446Z,11.30
2022-08-31T20:52:23.691Z,11.30
2022-08-31T20:54:54.352Z,11.20
2022-08-31T20:57:32.189Z,11.20
2022-08-31T21:00:03.375Z,11.30
2022-08-31T21:02:31.978Z,11.20
2022-08-31T21:05:10.361Z,11.30
2022-08-31T21:07:46.176Z,11.30
2022-08-31T21:10:13.307Z,11.30
2022-08-31T21:12:40.775Z,11.30
2022-08-31T21:15:10.255Z,11.30
2022-08-31T21:17:37.294Z,11.30
2022-08-31T21:20:05.090Z,11.20
2022-08-31T21:22:32.072Z,11.20
2022-08-31T21:25:03.544Z,11.20
2022-08-31T21:27:31.422Z,11.10
2022-08-31T21:29:58.767Z,11.00
2022-08-31T21:32:25.880Z,10.90
2022-08-31T21:34:56.830Z,10.80
2022-08-31T21:37:23.737Z,10.80
2022-08-31T21:39:53.480Z,10.80
2022-08-31T21:42:24.214Z,10.70
2022-08-31T21:44:51.474Z,10.70
2022-08-31T21:47:18.356Z,10.70
2022-08-31T21:49:45.519Z,10.70
2022-08-31T21:52:12.502Z,10.70
2022-08-31T21:54:44.820Z,10.60
2022-08-31T21:57:12.944Z,10.70
2022-08-31T21:59:40.104Z,10.60
2022-08-31T22:02:11.324Z,10.70
2022-08-31T22:04:40.359Z,10.60
2022-08-31T22:07:08.256Z,10.60
2022-08-31T22:09:35.909Z,10.60
2022-08-31T22:12:07.294Z,10.60
2022-08-31T22:14:37.696Z,10.50
2022-08-31T22:17:06.565Z,10.40
2022-08-31T22:19:36.018Z,10.20
2022-08-31T22:22:05.207Z,10.20
2022-08-31T22:24:33.773Z,10.20
2022-08-31T22:27:01.684Z,10.10
2022-08-31T22:29:31.714Z,10.10
2022-08-31T22:32:00.988Z,10.00
2022-08-31T22:34:28.343Z,10.00
2022-08-31T22:36:56.287Z,10.00
2022-08-31T22:39:28.469Z,10.00
2022-08-31T22:41:55.650Z,10.00
2022-08-31T22:44:25.087Z,10.00
2022-08-31T22:46:52.736Z,10.00
2022-08-31T22:49:19.741Z,9.90
2022-08-31T22:51:49.399Z,9.80
2022-08-31T22:54:18.024Z,9.80
2022-08-31T22:56:45.233Z,9.80
2022-08-31T22:59:14.211Z,9.80
2022-08-31T23:01:44.100Z,9.80
2022-08-31T23:04:12.606Z,9.80
2022-08-31T23:06:39.799Z,9.80
2022-08-31T23:09:08.718Z,9.80
2022-08-31T23:11:36.276Z,9.80
2022-08-31T23:14:07.409Z,9.70
2022-08-31T23:16:37.231Z,9.70
2022-08-31T23:19:12.427Z,9.70
2022-08-31T23:21:44.613Z,9.70
2022-08-31T23:24:16.866Z,9.60
2022-08-31T23:26:44.905Z,9.50
2022-08-31T23:29:13.370Z,9.50
2022-08-31T23:31:40.628Z,9.60
2022-08-31T23:34:11.668Z,9.50
2022-08-31T23:36:40.095Z,9.50
2022-08-31T23:39:07.255Z,9.40
2022-08-31T23:41:38.897Z,9.40
2022-08-31T23:44:09.250Z,9.40
2022-08-31T23:46:37.797Z,9.40
2022-08-31T23:49:06.570Z,9.30
2022-08-31T23:51:33.664Z,9.30
2022-08-31T23:54:01.461Z,9.30
2022-08-31T23:56:35.528Z,9.30
2022-08-31T23:59:03.379Z,9.30
